Archival Weather

Snohomish County (Paine Fld)

Everett, Washington (KPAE)

Report from: Sunday, October 29, 2023 8:53 PM PDT
Current time: Friday, June 14, 2024 4:30 AM PDT

Current weather – Weather history – Daily summaries
Weather forecast

Temperature6.1°C (43.0°F)
Wind chill5.1°C (41.3°F)
Dew point2.2°C (36.0°F)
Winds 3 kts (1.5 m/s, 3.5 mph) North (350°)
Visibility10 mi. (16.1 km)
Clouds Sky clear
Altimeter30.38 in.Hg (1029 mB)
Relative humidity76 %
Density altitude-1,509 ft. (-460 m)
Sea-level pressure102.9 kPa (1029 mB, 30.40 in.Hg)
Remarks Automated weather observing station with precipitation discriminator
Flight conditions Visual Meteorological Conditions
Raw dataKPAE 300353Z 35003KT 10SM CLR 06/02 A3038 RMK AO2 SLP293 T00610022
An error has occurred. This application may no longer respond until reloaded. Reload 🗙